Time;durP1;ratioP1;P1;durP2;ratioP2;P2;SDS_P1;SDS_P2;PMS_P1;PMS_P2;Temp;Humidity;BMP_temperature;BMP_pressure;BME280_temperature;BME280_humidity;BME280_pressure;Samples;Min_cycle;Max_cycle;Signal;HPM_P1;HPM_P2
2021/12/03 00:00:21;;;;;;;23.07;17.10;;;;;;;;;;2073033;28;20181;-52
2021/12/03 00:01:24;;;;;;;21.93;15.93;;;;;;;;;;2080452;28;20172;-55
2021/12/03 00:02:24;;;;;;;20.20;17.10;;;;;;;;;;2077888;28;20414;-52
2021/12/03 00:03:24;;;;;;;24.20;17.20;;;;;;;;;;2080081;28;20438;-52
2021/12/03 00:04:25;;;;;;;19.73;16.77;;;;;;;;;;2079483;28;20255;-57
2021/12/03 00:05:25;;;;;;;23.53;16.77;;;;;;;;;;2073454;28;20189;-55
2021/12/03 00:06:25;;;;;;;20.83;16.37;;;;;;;;;;2072285;28;20170;-57
2021/12/03 00:07:26;;;;;;;20.13;16.93;;;;;;;;;;2078840;28;20266;-52
2021/12/03 00:08:26;;;;;;;20.57;16.30;;;;;;;;;;2077779;28;20180;-57
2021/12/03 00:09:26;;;;;;;22.13;16.53;;;;;;;;;;2075308;28;20197;-55
2021/12/03 00:10:27;;;;;;;20.83;17.17;;;;;;;;;;2080407;28;20189;-53
2021/12/03 00:11:27;;;;;;;18.37;16.33;;;;;;;;;;2080320;28;20180;-56
2021/12/03 00:12:27;;;;;;;23.13;16.40;;;;;;;;;;2080549;28;20227;-58
2021/12/03 00:13:29;;;;;;;21.10;16.70;;;;;;;;;;2080782;28;20208;-56
2021/12/03 00:14:29;;;;;;;19.17;16.80;;;;;;;;;;2079256;28;20287;-54
2021/12/03 00:15:30;;;;;;;20.70;16.20;;;;;;;;;;2078925;28;20422;-59
2021/12/03 00:16:30;;;;;;;20.33;15.97;;;;;;;;;;2078857;28;20229;-52
2021/12/03 00:17:30;;;;;;;17.40;15.47;;;;;;;;;;2078659;28;20263;-56
2021/12/03 00:18:31;;;;;;;18.70;14.57;;;;;;;;;;2073870;28;20174;-55
2021/12/03 00:19:31;;;;;;;21.03;15.57;;;;;;;;;;2074305;28;20161;-55
2021/12/03 00:20:36;;;;;;;22.93;16.17;;;;;;;;;;2076858;28;20268;-56
2021/12/03 00:21:37;;;;;;;17.23;14.53;;;;;;;;;;2079495;28;20175;-54
2021/12/03 00:22:38;;;;;;;17.03;14.10;;;;;;;;;;2072805;28;20451;-58
2021/12/03 00:23:39;;;;;;;17.33;14.27;;;;;;;;;;2068543;28;20896;-53
2021/12/03 00:24:39;;;;;;;16.13;13.97;;;;;;;;;;2073778;28;20169;-56
2021/12/03 00:25:40;;;;;;;18.90;13.97;;;;;;;;;;2074488;28;20165;-52
2021/12/03 00:26:40;;;;;;;18.47;14.43;;;;;;;;;;2074879;28;20227;-57
2021/12/03 00:27:41;;;;;;;18.93;14.03;;;;;;;;;;2075016;28;20173;-57
2021/12/03 00:28:41;;;;;;;16.47;13.93;;;;;;;;;;2071892;28;20193;-58
2021/12/03 00:29:41;;;;;;;17.30;14.23;;;;;;;;;;2075092;28;20207;-54
2021/12/03 00:30:42;;;;;;;18.47;13.50;;;;;;;;;;2068997;28;20705;-55
2021/12/03 00:31:42;;;;;;;21.90;14.60;;;;;;;;;;2078519;28;20244;-56
2021/12/03 00:32:43;;;;;;;18.60;14.87;;;;;;;;;;2078563;28;20189;-55
2021/12/03 00:33:43;;;;;;;19.70;14.90;;;;;;;;;;2079334;28;20327;-55
2021/12/03 00:34:44;;;;;;;20.10;15.33;;;;;;;;;;2075892;28;20441;-54
2021/12/03 00:35:44;;;;;;;21.90;15.53;;;;;;;;;;2072103;28;20172;-56
2021/12/03 00:36:44;;;;;;;21.77;15.20;;;;;;;;;;2073886;28;20234;-55
2021/12/03 00:37:48;;;;;;;22.53;15.73;;;;;;;;;;2075677;28;20676;-53
2021/12/03 00:38:53;;;;;;;19.20;15.27;;;;;;;;;;2074799;28;20716;-55
2021/12/03 00:39:54;;;;;;;21.83;16.27;;;;;;;;;;2074732;28;20493;-53
2021/12/03 00:40:54;;;;;;;25.60;17.53;;;;;;;;;;2070312;28;20411;-55
2021/12/03 00:41:59;;;;;;;25.90;17.63;;;;;;;;;;2067266;28;20173;-56
2021/12/03 00:42:59;;;;;;;22.60;17.70;;;;;;;;;;2067958;28;20655;-58
2021/12/03 00:44:00;;;;;;;25.67;17.53;;;;;;;;;;2067617;28;20490;-53
2021/12/03 00:45:02;;;;;;;23.63;17.57;;;;;;;;;;2073813;28;20164;-53
2021/12/03 00:46:06;;;;;;;26.07;17.87;;;;;;;;;;2077652;28;20187;-55
2021/12/03 00:47:07;;;;;;;25.33;18.50;;;;;;;;;;2076465;28;20541;-52
2021/12/03 00:48:07;;;;;;;25.20;17.57;;;;;;;;;;2076742;28;20411;-52
2021/12/03 00:49:07;;;;;;;23.23;18.10;;;;;;;;;;2077543;28;20288;-54
2021/12/03 00:50:09;;;;;;;23.93;17.37;;;;;;;;;;2078508;28;20227;-55
2021/12/03 00:51:11;;;;;;;26.33;18.90;;;;;;;;;;2071598;28;20193;-55
2021/12/03 00:52:11;;;;;;;21.73;17.13;;;;;;;;;;2072118;28;20495;-55
2021/12/03 00:53:11;;;;;;;23.83;18.40;;;;;;;;;;2073592;28;20427;-55
2021/12/03 00:54:13;;;;;;;20.20;17.40;;;;;;;;;;2079637;28;20193;-54
2021/12/03 00:55:13;;;;;;;25.03;18.60;;;;;;;;;;2079914;28;20189;-54
2021/12/03 00:56:14;;;;;;;24.13;18.23;;;;;;;;;;2080681;28;20390;-56
2021/12/03 00:57:15;;;;;;;21.80;17.63;;;;;;;;;;2076213;28;20232;-56
2021/12/03 00:58:16;;;;;;;22.57;17.63;;;;;;;;;;2080202;28;20424;-55
2021/12/03 00:59:16;;;;;;;21.67;16.17;;;;;;;;;;2079187;28;20410;-53
2021/12/03 01:00:19;;;;;;;20.93;17.80;;;;;;;;;;2079022;28;20183;-56
2021/12/03 01:01:19;;;;;;;25.03;18.90;;;;;;;;;;2079200;28;20196;-54
2021/12/03 01:02:20;;;;;;;21.70;17.77;;;;;;;;;;2080767;28;20426;-55
2021/12/03 01:03:20;;;;;;;25.93;18.07;;;;;;;;;;2080923;28;20212;-55
2021/12/03 01:04:20;;;;;;;25.07;18.23;;;;;;;;;;2080854;28;20203;-54
2021/12/03 01:05:21;;;;;;;24.23;17.77;;;;;;;;;;2081941;28;20174;-54
2021/12/03 01:06:21;;;;;;;25.37;18.93;;;;;;;;;;2081445;28;20189;-55
2021/12/03 01:07:21;;;;;;;24.73;17.83;;;;;;;;;;2081156;28;20177;-58
2021/12/03 01:08:22;;;;;;;26.00;18.00;;;;;;;;;;2081036;28;20232;-52
2021/12/03 01:09:22;;;;;;;27.00;19.60;;;;;;;;;;2080876;28;20188;-52
2021/12/03 01:10:23;;;;;;;26.40;18.50;;;;;;;;;;2072974;28;20173;-55
2021/12/03 01:11:23;;;;;;;23.40;17.53;;;;;;;;;;2081542;28;20232;-57
2021/12/03 01:12:23;;;;;;;23.60;18.83;;;;;;;;;;2081215;28;20201;-59
2021/12/03 01:13:23;;;;;;;28.53;19.57;;;;;;;;;;2081077;28;20173;-56
2021/12/03 01:14:24;;;;;;;23.93;18.73;;;;;;;;;;2074301;28;20189;-57
2021/12/03 01:15:26;;;;;;;28.17;19.00;;;;;;;;;;2075804;28;20196;-55
2021/12/03 01:16:30;;;;;;;28.93;19.37;;;;;;;;;;2081245;28;20173;-54
2021/12/03 01:17:30;;;;;;;25.73;18.83;;;;;;;;;;2075233;28;20430;-55
2021/12/03 01:18:31;;;;;;;24.30;18.87;;;;;;;;;;2076720;28;20414;-53
2021/12/03 01:19:31;;;;;;;27.37;19.57;;;;;;;;;;2081955;28;20180;-59
2021/12/03 01:20:32;;;;;;;25.83;18.73;;;;;;;;;;2081865;28;20233;-56
2021/12/03 01:21:32;;;;;;;34.07;20.20;;;;;;;;;;2081763;28;20204;-53
2021/12/03 01:22:33;;;;;;;27.23;20.10;;;;;;;;;;2080596;28;20375;-55
2021/12/03 01:23:33;;;;;;;22.80;18.97;;;;;;;;;;2078432;28;20169;-53
2021/12/03 01:24:33;;;;;;;24.50;19.60;;;;;;;;;;2076440;28;20181;-54
2021/12/03 01:25:34;;;;;;;25.37;18.50;;;;;;;;;;2076388;28;20196;-54
2021/12/03 01:26:35;;;;;;;31.97;19.90;;;;;;;;;;2075803;28;20265;-51
2021/12/03 01:27:36;;;;;;;26.80;20.37;;;;;;;;;;2076530;28;20231;-52
2021/12/03 01:28:36;;;;;;;27.83;18.27;;;;;;;;;;2076272;28;20529;-52
2021/12/03 01:29:36;;;;;;;28.27;19.60;;;;;;;;;;2077331;28;20187;-53
2021/12/03 01:30:37;;;;;;;29.77;19.40;;;;;;;;;;2076455;28;20185;-52
2021/12/03 01:31:37;;;;;;;24.43;19.13;;;;;;;;;;2079307;28;20204;-55
2021/12/03 01:32:38;;;;;;;26.17;19.97;;;;;;;;;;2072977;28;20196;-56
2021/12/03 01:33:39;;;;;;;24.47;18.37;;;;;;;;;;2072429;28;20181;-55
2021/12/03 01:34:39;;;;;;;23.67;18.20;;;;;;;;;;2077932;28;20207;-55
2021/12/03 01:35:39;;;;;;;27.70;19.17;;;;;;;;;;2081711;28;20281;-52
2021/12/03 01:36:40;;;;;;;30.17;20.27;;;;;;;;;;2081031;28;20205;-54
2021/12/03 01:37:40;;;;;;;25.53;19.60;;;;;;;;;;2079501;28;20184;-59
2021/12/03 01:38:41;;;;;;;23.07;18.17;;;;;;;;;;2076292;28;20866;-54
2021/12/03 01:39:41;;;;;;;27.80;18.80;;;;;;;;;;2078903;28;20176;-54
2021/12/03 01:40:41;;;;;;;29.30;19.73;;;;;;;;;;2076405;28;20233;-53
2021/12/03 01:41:42;;;;;;;25.27;19.57;;;;;;;;;;2080749;28;20165;-52
2021/12/03 01:42:44;;;;;;;27.43;19.80;;;;;;;;;;2083406;28;20703;-54
2021/12/03 01:43:45;;;;;;;24.10;18.43;;;;;;;;;;2081766;28;20161;-56
2021/12/03 01:44:45;;;;;;;26.47;18.83;;;;;;;;;;2074346;28;20387;-53
2021/12/03 01:45:45;;;;;;;27.67;18.43;;;;;;;;;;2078341;28;20583;-55
2021/12/03 01:46:46;;;;;;;29.07;19.67;;;;;;;;;;2077268;28;20161;-52
2021/12/03 01:47:48;;;;;;;25.33;18.77;;;;;;;;;;2076553;28;20183;-53
2021/12/03 01:48:48;;;;;;;27.97;18.87;;;;;;;;;;2077590;28;20181;-53
2021/12/03 01:49:48;;;;;;;28.50;18.97;;;;;;;;;;2077877;28;20415;-58
2021/12/03 01:50:49;;;;;;;28.00;18.67;;;;;;;;;;2074479;28;20188;-53
2021/12/03 01:51:50;;;;;;;26.93;19.97;;;;;;;;;;2080593;28;20177;-54
2021/12/03 01:52:50;;;;;;;25.50;19.20;;;;;;;;;;2078771;28;20556;-54
2021/12/03 01:53:51;;;;;;;28.83;18.87;;;;;;;;;;2082114;28;20192;-52
2021/12/03 01:54:51;;;;;;;22.63;19.13;;;;;;;;;;2081367;28;20520;-51
2021/12/03 01:55:52;;;;;;;25.30;18.87;;;;;;;;;;2079235;28;20264;-54
2021/12/03 01:56:53;;;;;;;27.80;18.40;;;;;;;;;;2083220;28;20181;-54
2021/12/03 01:57:53;;;;;;;23.93;19.40;;;;;;;;;;2083179;28;20410;-58
2021/12/03 01:58:54;;;;;;;24.77;19.33;;;;;;;;;;2083694;28;20165;-56
2021/12/03 01:59:54;;;;;;;26.13;19.60;;;;;;;;;;2083114;28;20228;-55
2021/12/03 02:00:56;;;;;;;22.03;17.90;;;;;;;;;;2083313;28;20633;-53
2021/12/03 02:01:57;;;;;;;27.87;18.93;;;;;;;;;;2081941;28;20180;-55
2021/12/03 02:02:58;;;;;;;26.50;19.73;;;;;;;;;;2084061;28;20458;-55
2021/12/03 02:04:00;;;;;;;28.73;20.63;;;;;;;;;;2082093;28;20180;-59
2021/12/03 02:05:00;;;;;;;21.83;18.00;;;;;;;;;;2082973;28;20602;-57
2021/12/03 02:06:01;;;;;;;28.93;19.77;;;;;;;;;;2074827;28;20443;-55
2021/12/03 02:07:02;;;;;;;26.13;19.13;;;;;;;;;;2081274;28;20216;-56
2021/12/03 02:08:03;;;;;;;26.23;19.53;;;;;;;;;;2081650;28;20188;-57
2021/12/03 02:09:04;;;;;;;27.53;19.03;;;;;;;;;;2080177;28;20232;-56
2021/12/03 02:10:05;;;;;;;26.77;20.40;;;;;;;;;;2081991;28;20901;-52
2021/12/03 02:11:06;;;;;;;27.80;19.97;;;;;;;;;;2082054;28;20410;-56
2021/12/03 02:12:07;;;;;;;25.83;20.60;;;;;;;;;;2074866;28;20205;-57
2021/12/03 02:13:10;;;;;;;22.67;18.83;;;;;;;;;;2075506;28;20414;-56
2021/12/03 02:14:11;;;;;;;27.90;21.53;;;;;;;;;;2080819;28;20245;-56
2021/12/03 02:15:11;;;;;;;27.77;20.30;;;;;;;;;;2081676;28;20422;-53
2021/12/03 02:16:12;;;;;;;29.03;20.13;;;;;;;;;;2078395;28;20740;-54
2021/12/03 02:17:13;;;;;;;30.43;21.37;;;;;;;;;;2077217;28;20188;-53
2021/12/03 02:18:14;;;;;;;27.90;21.17;;;;;;;;;;2077554;28;20840;-56
2021/12/03 02:19:14;;;;;;;26.93;21.53;;;;;;;;;;2078148;28;20173;-54
2021/12/03 02:20:15;;;;;;;25.63;20.37;;;;;;;;;;2078029;28;20530;-52
2021/12/03 02:21:16;;;;;;;26.57;22.43;;;;;;;;;;2079102;28;20173;-55
2021/12/03 02:22:16;;;;;;;25.50;21.63;;;;;;;;;;2079336;28;20180;-56
2021/12/03 02:23:18;;;;;;;29.13;21.43;;;;;;;;;;2076807;28;20181;-53
2021/12/03 02:24:21;;;;;;;24.93;20.67;;;;;;;;;;2072462;28;20173;-56
2021/12/03 02:25:22;;;;;;;25.63;21.50;;;;;;;;;;2078877;28;20942;-57
2021/12/03 02:26:23;;;;;;;28.07;22.53;;;;;;;;;;2078962;28;20446;-54
2021/12/03 02:27:23;;;;;;;28.63;23.33;;;;;;;;;;2078964;28;20425;-55
2021/12/03 02:28:25;;;;;;;27.67;22.23;;;;;;;;;;2077077;28;20177;-54
2021/12/03 02:29:26;;;;;;;28.57;23.10;;;;;;;;;;2078484;28;20184;-55
2021/12/03 02:30:26;;;;;;;27.77;22.90;;;;;;;;;;2069397;28;20929;-58
2021/12/03 02:31:26;;;;;;;29.27;22.90;;;;;;;;;;2079174;28;20446;-54
2021/12/03 02:32:27;;;;;;;27.40;22.97;;;;;;;;;;2079711;28;20216;-52
2021/12/03 02:33:27;;;;;;;33.20;23.90;;;;;;;;;;2076641;28;20216;-56
2021/12/03 02:34:27;;;;;;;29.90;23.97;;;;;;;;;;2080440;28;20172;-53
2021/12/03 02:35:28;;;;;;;31.03;23.37;;;;;;;;;;2080515;28;20237;-54
2021/12/03 02:36:28;;;;;;;27.67;23.67;;;;;;;;;;2080568;28;20157;-57
2021/12/03 02:37:28;;;;;;;36.40;24.77;;;;;;;;;;2078706;28;20556;-55
2021/12/03 02:38:28;;;;;;;25.00;22.30;;;;;;;;;;2081039;28;20259;-54
2021/12/03 02:39:29;;;;;;;28.77;24.60;;;;;;;;;;2080745;28;20211;-55
2021/12/03 02:40:29;;;;;;;30.30;22.23;;;;;;;;;;2080957;28;20689;-57
2021/12/03 02:41:30;;;;;;;28.17;23.27;;;;;;;;;;2076544;28;20189;-56
2021/12/03 02:42:30;;;;;;;30.33;25.13;;;;;;;;;;2075672;28;20181;-52
2021/12/03 02:43:30;;;;;;;32.93;24.37;;;;;;;;;;2080433;28;20245;-57
2021/12/03 02:44:31;;;;;;;35.13;24.93;;;;;;;;;;2080503;28;20173;-54
2021/12/03 02:45:31;;;;;;;31.03;24.20;;;;;;;;;;2079485;28;20216;-55
2021/12/03 02:46:31;;;;;;;30.27;24.37;;;;;;;;;;2079306;28;20204;-54
2021/12/03 02:47:32;;;;;;;34.43;24.20;;;;;;;;;;2077978;28;20195;-53
2021/12/03 02:48:35;;;;;;;32.33;23.77;;;;;;;;;;2085682;28;20184;-55
2021/12/03 02:49:36;;;;;;;30.57;22.50;;;;;;;;;;2085186;28;20182;-55
2021/12/03 02:50:37;;;;;;;30.87;23.80;;;;;;;;;;2078679;28;20430;-54
2021/12/03 02:51:37;;;;;;;34.00;25.33;;;;;;;;;;2075775;28;20477;-57
2021/12/03 02:52:38;;;;;;;32.60;25.13;;;;;;;;;;2079373;28;20461;-55
2021/12/03 02:53:38;;;;;;;32.80;24.00;;;;;;;;;;2080181;28;20169;-58
2021/12/03 02:54:38;;;;;;;33.20;23.67;;;;;;;;;;2077904;28;20176;-58
2021/12/03 02:55:39;;;;;;;35.00;23.70;;;;;;;;;;2078221;28;20160;-56
2021/12/03 02:56:39;;;;;;;31.93;24.13;;;;;;;;;;2078334;28;20192;-54
2021/12/03 02:57:39;;;;;;;31.13;25.20;;;;;;;;;;2078033;28;20188;-55
2021/12/03 02:58:39;;;;;;;30.87;24.90;;;;;;;;;;2076382;28;20193;-56
2021/12/03 02:59:40;;;;;;;34.37;26.27;;;;;;;;;;2076539;28;20199;-56
2021/12/03 03:00:41;;;;;;;33.23;25.23;;;;;;;;;;2078922;28;20169;-55
2021/12/03 03:01:42;;;;;;;33.67;26.00;;;;;;;;;;2079243;28;20238;-54
2021/12/03 03:02:42;;;;;;;33.13;24.93;;;;;;;;;;2078867;28;20452;-55
2021/12/03 03:03:42;;;;;;;31.40;24.30;;;;;;;;;;2075263;28;20177;-55
2021/12/03 03:04:43;;;;;;;30.27;24.63;;;;;;;;;;2075198;28;20188;-54
2021/12/03 03:06:02;;;;;;;31.20;25.37;;;;;;;;;;2077475;28;20169;-52
2021/12/03 03:07:03;;;;;;;30.30;22.17;;;;;;;;;;2077935;28;20219;-55
2021/12/03 03:08:03;;;;;;;36.47;26.03;;;;;;;;;;2074517;28;20433;-60
2021/12/03 03:09:08;;;;;;;30.23;25.53;;;;;;;;;;2075631;28;20224;-55
2021/12/03 03:10:10;;;;;;;33.37;25.27;;;;;;;;;;2080109;28;20196;-58
2021/12/03 03:11:11;;;;;;;30.77;25.80;;;;;;;;;;2072507;28;20423;-56
2021/12/03 03:12:12;;;;;;;34.57;27.03;;;;;;;;;;2078124;28;20473;-58
2021/12/03 03:13:13;;;;;;;35.53;26.90;;;;;;;;;;2078591;28;20176;-58
2021/12/03 03:14:13;;;;;;;36.10;27.50;;;;;;;;;;2074342;28;20419;-54
2021/12/03 03:15:14;;;;;;;36.63;26.43;;;;;;;;;;2080867;28;20219;-56
2021/12/03 03:16:15;;;;;;;37.70;27.30;;;;;;;;;;2074293;28;20197;-57
2021/12/03 03:17:16;;;;;;;35.43;27.07;;;;;;;;;;2080784;28;20240;-52
2021/12/03 03:18:21;;;;;;;35.27;25.80;;;;;;;;;;2074860;28;20430;-53
2021/12/03 03:19:22;;;;;;;37.73;26.83;;;;;;;;;;2080483;28;20173;-59
2021/12/03 03:20:22;;;;;;;32.37;25.80;;;;;;;;;;2078528;28;20430;-55
2021/12/03 03:21:23;;;;;;;38.17;27.43;;;;;;;;;;2080269;28;20412;-57
2021/12/03 03:22:23;;;;;;;35.27;26.43;;;;;;;;;;2080593;28;20192;-56
2021/12/03 03:23:23;;;;;;;36.60;26.40;;;;;;;;;;2078997;28;20242;-53
2021/12/03 03:24:24;;;;;;;36.37;27.40;;;;;;;;;;2073868;28;20173;-57
2021/12/03 03:25:24;;;;;;;39.57;27.37;;;;;;;;;;2079487;28;20169;-51
2021/12/03 03:26:24;;;;;;;34.07;26.47;;;;;;;;;;2079758;28;20232;-53
2021/12/03 03:27:25;;;;;;;37.77;26.73;;;;;;;;;;2077848;28;20188;-55
2021/12/03 03:28:26;;;;;;;35.37;27.13;;;;;;;;;;2079425;28;20175;-56
2021/12/03 03:30:36;;;;;;;34.43;27.37;;;;;;;;;;2063740;28;20221;-56
2021/12/03 03:31:37;;;;;;;37.90;25.73;;;;;;;;;;2068611;28;20489;-54
2021/12/03 03:32:38;;;;;;;38.47;28.03;;;;;;;;;;2071698;28;20200;-55
2021/12/03 03:33:38;;;;;;;39.73;26.83;;;;;;;;;;2072258;28;20918;-53
2021/12/03 03:34:39;;;;;;;34.30;27.83;;;;;;;;;;2070792;28;20169;-52
2021/12/03 03:35:39;;;;;;;39.10;27.80;;;;;;;;;;2071899;28;20176;-53
2021/12/03 03:36:42;;;;;;;38.43;27.43;;;;;;;;;;2073283;28;20600;-58
2021/12/03 03:37:42;;;;;;;39.70;25.43;;;;;;;;;;2075764;28;20548;-53
2021/12/03 03:38:42;;;;;;;37.13;27.23;;;;;;;;;;2071670;28;20414;-57
2021/12/03 03:39:43;;;;;;;37.20;25.60;;;;;;;;;;2070709;28;20197;-53
2021/12/03 03:40:44;;;;;;;38.03;26.70;;;;;;;;;;2077782;28;20317;-51
2021/12/03 03:41:45;;;;;;;40.73;27.27;;;;;;;;;;2080004;28;20168;-54
2021/12/03 03:42:45;;;;;;;35.50;27.03;;;;;;;;;;2077949;28;20490;-57
2021/12/03 03:43:46;;;;;;;36.33;25.83;;;;;;;;;;2083516;28;20207;-53
2021/12/03 03:44:46;;;;;;;36.93;25.53;;;;;;;;;;2080719;28;20264;-53
2021/12/03 03:45:47;;;;;;;42.10;26.87;;;;;;;;;;2080727;28;20164;-56
2021/12/03 03:46:52;;;;;;;38.93;26.63;;;;;;;;;;2082160;28;20172;-54
2021/12/03 03:47:52;;;;;;;40.67;24.77;;;;;;;;;;2079190;28;20425;-57
2021/12/03 03:48:53;;;;;;;36.53;25.20;;;;;;;;;;2081333;28;20418;-55
2021/12/03 03:49:53;;;;;;;35.30;26.43;;;;;;;;;;2085527;28;20208;-57
2021/12/03 03:50:53;;;;;;;37.27;28.13;;;;;;;;;;2080547;28;20173;-57
2021/12/03 03:51:54;;;;;;;35.23;27.30;;;;;;;;;;2079738;28;20322;-56
2021/12/03 03:52:55;;;;;;;35.40;26.37;;;;;;;;;;2080793;28;20175;-58
2021/12/03 03:53:55;;;;;;;35.37;27.43;;;;;;;;;;2079251;28;20812;-55
2021/12/03 03:54:55;;;;;;;42.33;28.23;;;;;;;;;;2078653;28;20674;-57
2021/12/03 03:55:56;;;;;;;42.13;28.67;;;;;;;;;;2080091;28;20742;-57
2021/12/03 03:56:56;;;;;;;39.90;28.37;;;;;;;;;;2080971;28;20577;-58
2021/12/03 03:57:58;;;;;;;42.07;29.40;;;;;;;;;;2070556;28;20169;-52
2021/12/03 03:58:58;;;;;;;41.47;27.10;;;;;;;;;;2071287;28;20173;-56
2021/12/03 03:59:58;;;;;;;41.70;28.47;;;;;;;;;;2083245;28;20433;-56
2021/12/03 04:00:59;;;;;;;40.60;29.90;;;;;;;;;;2080684;28;20450;-55
2021/12/03 04:01:59;;;;;;;39.23;30.00;;;;;;;;;;2079583;28;20568;-58
2021/12/03 04:03:00;;;;;;;42.63;28.87;;;;;;;;;;2077747;28;20176;-59
2021/12/03 04:04:00;;;;;;;37.90;27.57;;;;;;;;;;2075990;28;20670;-59
2021/12/03 04:05:00;;;;;;;46.30;30.73;;;;;;;;;;2079356;28;20191;-58
2021/12/03 04:06:01;;;;;;;40.77;29.23;;;;;;;;;;2080245;28;20192;-56
2021/12/03 04:07:01;;;;;;;43.87;28.80;;;;;;;;;;2081181;28;20223;-57
2021/12/03 04:08:02;;;;;;;43.73;29.60;;;;;;;;;;2076208;28;20642;-59
2021/12/03 04:09:02;;;;;;;42.33;29.77;;;;;;;;;;2078144;28;20239;-54
2021/12/03 04:10:03;;;;;;;40.50;29.37;;;;;;;;;;2081281;28;20231;-61
2021/12/03 04:11:03;;;;;;;41.90;30.57;;;;;;;;;;2079952;28;20172;-52
2021/12/03 04:12:04;;;;;;;45.37;30.30;;;;;;;;;;2080270;28;20827;-55
2021/12/03 04:13:04;;;;;;;45.10;31.70;;;;;;;;;;2081860;28;20200;-53
2021/12/03 04:14:04;;;;;;;42.50;29.53;;;;;;;;;;2080327;28;20219;-55
2021/12/03 04:15:07;;;;;;;39.13;26.83;;;;;;;;;;2080180;28;20179;-57
2021/12/03 04:16:07;;;;;;;40.07;28.40;;;;;;;;;;2075709;28;20668;-56
2021/12/03 04:17:08;;;;;;;46.80;30.40;;;;;;;;;;2080778;28;20496;-58
2021/12/03 04:18:09;;;;;;;42.00;30.20;;;;;;;;;;2080646;28;20796;-60
2021/12/03 04:19:09;;;;;;;43.03;30.30;;;;;;;;;;2079963;28;20164;-59
2021/12/03 04:20:11;;;;;;;47.97;31.70;;;;;;;;;;2082671;28;20195;-57
2021/12/03 04:21:11;;;;;;;46.00;29.80;;;;;;;;;;2080379;28;20200;-57
2021/12/03 04:22:17;;;;;;;44.57;31.97;;;;;;;;;;2080110;28;20180;-59
2021/12/03 04:23:19;;;;;;;44.13;31.43;;;;;;;;;;2080513;28;20170;-54
2021/12/03 04:24:20;;;;;;;44.13;31.40;;;;;;;;;;2076434;28;20783;-56
2021/12/03 04:25:21;;;;;;;45.77;31.27;;;;;;;;;;2073775;28;20414;-58
2021/12/03 04:26:21;;;;;;;41.17;29.37;;;;;;;;;;2078921;28;20180;-56
2021/12/03 04:27:21;;;;;;;48.00;31.93;;;;;;;;;;2074649;28;20414;-58
2021/12/03 04:28:22;;;;;;;45.83;31.53;;;;;;;;;;2079800;28;20259;-57
2021/12/03 04:29:22;;;;;;;48.37;34.13;;;;;;;;;;2081320;28;20263;-57
2021/12/03 04:30:27;;;;;;;48.07;32.00;;;;;;;;;;2081350;28;20243;-56
2021/12/03 04:31:29;;;;;;;49.97;32.87;;;;;;;;;;2081187;28;20690;-57
2021/12/03 04:32:29;;;;;;;48.70;30.50;;;;;;;;;;2081074;28;20966;-58
2021/12/03 04:33:30;;;;;;;52.87;31.60;;;;;;;;;;2080162;28;20421;-58
2021/12/03 04:34:30;;;;;;;52.60;34.00;;;;;;;;;;2080567;28;20222;-57
2021/12/03 04:35:30;;;;;;;53.50;34.40;;;;;;;;;;2080558;28;20180;-57
2021/12/03 04:36:31;;;;;;;55.57;36.40;;;;;;;;;;2080859;28;20202;-57
2021/12/03 04:37:31;;;;;;;56.23;35.23;;;;;;;;;;2080924;28;20184;-57
2021/12/03 04:38:31;;;;;;;56.57;35.93;;;;;;;;;;2077954;28;20657;-54
2021/12/03 04:39:31;;;;;;;52.63;33.07;;;;;;;;;;2082214;28;20226;-59
2021/12/03 04:40:33;;;;;;;58.20;37.30;;;;;;;;;;2084912;28;20188;-59
2021/12/03 04:41:33;;;;;;;61.53;37.57;;;;;;;;;;2080409;28;20727;-55
2021/12/03 04:42:33;;;;;;;63.23;37.03;;;;;;;;;;2081167;28;20480;-58
2021/12/03 04:43:33;;;;;;;53.63;35.50;;;;;;;;;;2082653;28;20172;-55
2021/12/03 04:44:35;;;;;;;62.23;38.63;;;;;;;;;;2088765;28;20175;-57
2021/12/03 04:45:35;;;;;;;63.17;38.00;;;;;;;;;;2089395;28;20181;-57
2021/12/03 04:46:35;;;;;;;55.83;35.90;;;;;;;;;;2088612;28;20404;-54
2021/12/03 04:47:35;;;;;;;57.13;35.40;;;;;;;;;;2088670;28;20554;-57
2021/12/03 04:48:36;;;;;;;63.77;38.03;;;;;;;;;;2089346;28;20245;-57
2021/12/03 04:49:36;;;;;;;67.30;37.70;;;;;;;;;;2088722;28;20667;-58
2021/12/03 04:50:38;;;;;;;64.63;37.43;;;;;;;;;;2082128;28;20223;-57
2021/12/03 04:51:38;;;;;;;62.40;36.70;;;;;;;;;;2085872;28;20649;-56
2021/12/03 04:52:39;;;;;;;63.93;37.97;;;;;;;;;;2089477;28;20468;-58
2021/12/03 04:53:39;;;;;;;62.57;38.20;;;;;;;;;;2089337;28;20160;-58
2021/12/03 04:54:40;;;;;;;64.63;38.03;;;;;;;;;;2081208;28;20783;-55
2021/12/03 04:55:41;;;;;;;61.27;38.20;;;;;;;;;;2081107;28;20272;-56
2021/12/03 04:56:41;;;;;;;69.30;38.97;;;;;;;;;;2080489;28;20416;-60
2021/12/03 04:57:41;;;;;;;58.63;36.07;;;;;;;;;;2080417;28;20177;-57
2021/12/03 04:58:42;;;;;;;62.73;37.27;;;;;;;;;;2088940;28;20690;-58
2021/12/03 04:59:42;;;;;;;61.23;39.30;;;;;;;;;;2089220;28;20183;-58
2021/12/03 05:00:52;;;;;;;69.43;38.70;;;;;;;;;;2080201;28;20194;-58
2021/12/03 05:01:56;;;;;;;67.57;39.30;;;;;;;;;;2079775;28;20273;-57
2021/12/03 05:02:57;;;;;;;67.97;39.30;;;;;;;;;;2078170;28;20417;-53
2021/12/03 05:03:57;;;;;;;67.20;39.73;;;;;;;;;;2078859;28;20200;-56
2021/12/03 05:05:02;;;;;;;68.90;38.07;;;;;;;;;;2079663;28;20196;-56
2021/12/03 05:06:03;;;;;;;62.77;41.30;;;;;;;;;;2079498;28;20271;-56
2021/12/03 05:08:11;;;;;;;68.40;40.17;;;;;;;;;;2079604;28;20417;-56
2021/12/03 05:09:11;;;;;;;63.23;37.93;;;;;;;;;;2080829;28;20631;-57
2021/12/03 05:10:11;;;;;;;72.60;42.53;;;;;;;;;;2083876;28;20188;-54
2021/12/03 05:11:12;;;;;;;65.13;41.43;;;;;;;;;;2089873;28;20258;-54
2021/12/03 05:12:12;;;;;;;72.80;41.50;;;;;;;;;;2087748;28;20207;-58
2021/12/03 05:13:17;;;;;;;68.37;39.27;;;;;;;;;;2084798;28;20184;-56
2021/12/03 05:14:17;;;;;;;67.67;37.90;;;;;;;;;;2081819;28;20634;-54
2021/12/03 05:15:18;;;;;;;71.90;39.50;;;;;;;;;;2088031;28;20438;-57
2021/12/03 05:16:18;;;;;;;74.00;40.80;;;;;;;;;;2088890;28;20172;-56
2021/12/03 05:17:19;;;;;;;70.03;40.40;;;;;;;;;;2090313;28;20261;-52
2021/12/03 05:18:20;;;;;;;69.50;39.50;;;;;;;;;;2080385;28;20172;-56
2021/12/03 05:19:20;;;;;;;68.60;40.50;;;;;;;;;;2089715;28;20164;-58
2021/12/03 05:20:21;;;;;;;71.23;42.80;;;;;;;;;;2086783;28;20524;-55
2021/12/03 05:21:21;;;;;;;64.50;37.93;;;;;;;;;;2081806;28;20181;-57
2021/12/03 05:22:21;;;;;;;66.77;40.13;;;;;;;;;;2080604;28;20176;-56
2021/12/03 05:23:22;;;;;;;62.13;37.10;;;;;;;;;;2073996;28;20676;-56
2021/12/03 05:24:22;;;;;;;68.07;41.37;;;;;;;;;;2082343;28;20184;-56
2021/12/03 05:25:23;;;;;;;62.10;39.57;;;;;;;;;;2082650;28;20496;-54
2021/12/03 05:26:23;;;;;;;69.03;41.27;;;;;;;;;;2083824;28;20198;-57
2021/12/03 05:27:23;;;;;;;70.87;41.00;;;;;;;;;;2088652;28;20215;-56
2021/12/03 05:28:25;;;;;;;66.57;43.10;;;;;;;;;;2084863;28;20188;-57
2021/12/03 05:29:25;;;;;;;72.37;42.20;;;;;;;;;;2087005;28;20522;-54
2021/12/03 05:30:25;;;;;;;71.77;43.20;;;;;;;;;;2080610;28;20555;-56
2021/12/03 05:31:25;;;;;;;73.70;42.83;;;;;;;;;;2081161;28;20652;-54
2021/12/03 05:32:26;;;;;;;69.13;41.87;;;;;;;;;;2077945;28;20204;-56
2021/12/03 05:33:26;;;;;;;66.97;42.67;;;;;;;;;;2080238;28;20168;-54
2021/12/03 05:34:27;;;;;;;71.27;41.70;;;;;;;;;;2075092;28;20173;-56
2021/12/03 05:35:28;;;;;;;67.90;42.87;;;;;;;;;;2081242;28;20563;-57
2021/12/03 05:36:28;;;;;;;77.33;46.27;;;;;;;;;;2081409;28;20410;-57
2021/12/03 05:37:28;;;;;;;71.17;44.03;;;;;;;;;;2082149;28;20239;-56
2021/12/03 05:38:29;;;;;;;76.47;45.03;;;;;;;;;;2082168;28;20196;-54
2021/12/03 05:39:29;;;;;;;69.97;40.67;;;;;;;;;;2081817;28;20180;-57
2021/12/03 05:40:29;;;;;;;73.77;42.20;;;;;;;;;;2077273;28;20338;-57
2021/12/03 05:41:29;;;;;;;73.63;43.60;;;;;;;;;;2090050;28;20247;-57
2021/12/03 05:42:30;;;;;;;72.73;40.50;;;;;;;;;;2090885;28;20183;-55
2021/12/03 05:43:30;;;;;;;76.10;44.13;;;;;;;;;;2091063;28;20225;-57
2021/12/03 05:44:30;;;;;;;73.73;42.57;;;;;;;;;;2090147;28;20183;-56
2021/12/03 05:45:32;;;;;;;79.27;44.53;;;;;;;;;;2090387;28;20239;-57
2021/12/03 05:46:32;;;;;;;80.83;45.10;;;;;;;;;;2069783;28;20169;-58
2021/12/03 05:47:33;;;;;;;72.50;43.07;;;;;;;;;;2073788;28;20432;-55
2021/12/03 05:48:33;;;;;;;78.50;43.40;;;;;;;;;;2077709;28;20180;-56
2021/12/03 05:49:33;;;;;;;78.77;46.70;;;;;;;;;;2082481;28;20652;-56
2021/12/03 05:50:34;;;;;;;75.57;44.90;;;;;;;;;;2086653;28;20203;-53
2021/12/03 05:51:35;;;;;;;74.47;44.53;;;;;;;;;;2090663;28;20168;-55
2021/12/03 05:52:35;;;;;;;74.70;42.77;;;;;;;;;;2090527;28;20209;-58
2021/12/03 05:53:35;;;;;;;84.70;46.80;;;;;;;;;;2090988;28;20211;-56
2021/12/03 05:54:35;;;;;;;77.53;45.37;;;;;;;;;;2090376;28;20219;-58
2021/12/03 05:55:36;;;;;;;70.00;41.73;;;;;;;;;;2091229;28;20178;-57